KBOW/BOW METAR and TAF weather

Enter ICAO airport designator
Station Type Date Time Source
KBOW METAR 2021/01/22 06:55 UTC NOAA

KBOW 220655Z AUTO 00000KT 10SM CLR 12/10 A3003 RMK AO2


Station Type Date Time Source
KBOW Decoded METAR 2021/01/22 06:55 UTC NOAA

Bartow Municipal, FL, United States (KBOW) 27-57N 081-47W
Jan 22, 2021 - 01:55 AM EST / 2021.01.22 0655 UTC
Wind: Calm:0
Visibility: 10 mile(s):0
Sky conditions: clear
Temperature: 53 F (12 C)
Dew Point: 50 F (10 C)
Relative Humidity: 87%
Pressure (altimeter): 30.03 in. Hg (1016 hPa)
ob: KBOW 220655Z AUTO 00000KT 10SM CLR 12/10 A3003 RMK AO2
cycle: 7

Station Type Date Time Source
KBOW TAF UTC NOAA

Error!

Example: see airport list